sensor_id;sensor_type;location;lat;lon;timestamp;P1;durP1;ratioP1;P2;durP2;ratioP2
62457;SDS011;48509;52.122;5.250;2022-07-12T00:02:14;2.9;;;1.8;;
62457;SDS011;48509;52.122;5.250;2022-07-12T00:04:03;3.0;;;2.1;;
62457;SDS011;48509;52.122;5.250;2022-07-12T00:05:49;5.7;;;1.7;;
62457;SDS011;48509;52.122;5.250;2022-07-12T00:07:35;3.6;;;2.1;;
62457;SDS011;48509;52.122;5.250;2022-07-12T00:09:21;3.2;;;1.9;;
62457;SDS011;48509;52.122;5.250;2022-07-12T00:11:09;5.8;;;2.21;;
62457;SDS011;48509;52.122;5.250;2022-07-12T00:14:41;2.31;;;2.1;;
62457;SDS011;48509;52.122;5.250;2022-07-12T00:16:27;5.9;;;2.21;;
62457;SDS011;48509;52.122;5.250;2022-07-12T00:18:15;4.3;;;2.5;;
62457;SDS011;48509;52.122;5.250;2022-07-12T00:20:02;3.8;;;2.6;;
62457;SDS011;48509;52.122;5.250;2022-07-12T00:21:49;5.0;;;3.2;;
62457;SDS011;48509;52.122;5.250;2022-07-12T00:25:24;4.41;;;3.2;;
62457;SDS011;48509;52.122;5.250;2022-07-12T00:27:12;7.0;;;3.1;;
62457;SDS011;48509;52.122;5.250;2022-07-12T00:28:58;6.3;;;3.2;;
62457;SDS011;48509;52.122;5.250;2022-07-12T00:30:45;9.71;;;4.1;;
62457;SDS011;48509;52.122;5.250;2022-07-12T00:32:31;5.5;;;4.0;;
62457;SDS011;48509;52.122;5.250;2022-07-12T00:34:17;5.3;;;4.0;;
62457;SDS011;48509;52.122;5.250;2022-07-12T00:37:52;5.3;;;4.1;;
62457;SDS011;48509;52.122;5.250;2022-07-12T00:39:38;5.2;;;3.8;;
62457;SDS011;48509;52.122;5.250;2022-07-12T00:41:24;5.9;;;3.4;;
62457;SDS011;48509;52.122;5.250;2022-07-12T00:43:11;8.71;;;3.6;;
62457;SDS011;48509;52.122;5.250;2022-07-12T00:44:58;4.91;;;3.5;;
62457;SDS011;48509;52.122;5.250;2022-07-12T00:46:44;3.9;;;3.5;;
62457;SDS011;48509;52.122;5.250;2022-07-12T00:50:20;4.41;;;3.0;;
62457;SDS011;48509;52.122;5.250;2022-07-12T00:52:07;6.9;;;3.4;;
62457;SDS011;48509;52.122;5.250;2022-07-12T00:53:55;4.61;;;3.5;;
62457;SDS011;48509;52.122;5.250;2022-07-12T00:55:45;5.3;;;3.2;;
62457;SDS011;48509;52.122;5.250;2022-07-12T00:57:31;4.41;;;3.2;;
62457;SDS011;48509;52.122;5.250;2022-07-12T00:59:18;5.2;;;3.4;;
62457;SDS011;48509;52.122;5.250;2022-07-12T01:02:51;5.2;;;3.2;;
62457;SDS011;48509;52.122;5.250;2022-07-12T01:04:40;4.8;;;3.2;;
62457;SDS011;48509;52.122;5.250;2022-07-12T01:06:28;6.4;;;3.5;;
62457;SDS011;48509;52.122;5.250;2022-07-12T01:08:17;3.2;;;2.9;;
62457;SDS011;48509;52.122;5.250;2022-07-12T01:10:04;7.0;;;3.1;;
62457;SDS011;48509;52.122;5.250;2022-07-12T01:11:52;8.4;;;3.7;;
62457;SDS011;48509;52.122;5.250;2022-07-12T01:15:27;5.8;;;3.7;;
62457;SDS011;48509;52.122;5.250;2022-07-12T01:17:14;4.3;;;3.0;;
62457;SDS011;48509;52.122;5.250;2022-07-12T01:19:03;7.9;;;2.7;;
62457;SDS011;48509;52.122;5.250;2022-07-12T01:20:52;5.0;;;3.3;;
62457;SDS011;48509;52.122;5.250;2022-07-12T01:22:39;3.9;;;3.2;;
62457;SDS011;48509;52.122;5.250;2022-07-12T01:24:28;6.9;;;3.8;;
62457;SDS011;48509;52.122;5.250;2022-07-12T01:28:02;4.41;;;3.5;;
62457;SDS011;48509;52.122;5.250;2022-07-12T01:29:49;4.2;;;2.9;;
62457;SDS011;48509;52.122;5.250;2022-07-12T01:31:35;6.4;;;3.2;;
62457;SDS011;48509;52.122;5.250;2022-07-12T01:35:10;6.0;;;4.41;;
62457;SDS011;48509;52.122;5.250;2022-07-12T01:36:57;9.0;;;4.61;;
62457;SDS011;48509;52.122;5.250;2022-07-12T01:40:30;6.3;;;4.5;;
62457;SDS011;48509;52.122;5.250;2022-07-12T01:42:17;10.8;;;6.9;;
62457;SDS011;48509;52.122;5.250;2022-07-12T01:44:04;8.81;;;6.6;;
62457;SDS011;48509;52.122;5.250;2022-07-12T01:45:51;20.6;;;12.0;;
62457;SDS011;48509;52.122;5.250;2022-07-12T01:47:38;15.1;;;10.1;;
62457;SDS011;48509;52.122;5.250;2022-07-12T01:51:14;17.5;;;10.0;;
62457;SDS011;48509;52.122;5.250;2022-07-12T01:53:01;10.6;;;8.6;;
62457;SDS011;48509;52.122;5.250;2022-07-12T01:54:52;8.5;;;5.6;;
62457;SDS011;48509;52.122;5.250;2022-07-12T01:56:39;7.3;;;4.2;;
62457;SDS011;48509;52.122;5.250;2022-07-12T01:58:27;4.7;;;3.5;;
62457;SDS011;48509;52.122;5.250;2022-07-12T02:00:13;6.5;;;3.2;;
62457;SDS011;48509;52.122;5.250;2022-07-12T02:02:00;4.41;;;3.4;;
62457;SDS011;48509;52.122;5.250;2022-07-12T02:05:35;4.8;;;3.2;;
62457;SDS011;48509;52.122;5.250;2022-07-12T02:07:23;4.0;;;3.0;;
62457;SDS011;48509;52.122;5.250;2022-07-12T02:09:10;7.1;;;3.8;;
62457;SDS011;48509;52.122;5.250;2022-07-12T02:10:57;6.6;;;3.9;;
62457;SDS011;48509;52.122;5.250;2022-07-12T02:12:43;4.2;;;2.8;;
62457;SDS011;48509;52.122;5.250;2022-07-12T02:16:16;4.61;;;3.0;;
62457;SDS011;48509;52.122;5.250;2022-07-12T02:18:03;5.0;;;2.7;;
62457;SDS011;48509;52.122;5.250;2022-07-12T02:19:49;3.6;;;2.31;;
62457;SDS011;48509;52.122;5.250;2022-07-12T02:21:35;4.7;;;2.5;;
62457;SDS011;48509;52.122;5.250;2022-07-12T02:23:22;3.3;;;2.5;;
62457;SDS011;48509;52.122;5.250;2022-07-12T02:25:09;2.7;;;2.4;;
62457;SDS011;48509;52.122;5.250;2022-07-12T02:28:42;3.5;;;2.21;;
62457;SDS011;48509;52.122;5.250;2022-07-12T02:30:29;3.0;;;2.5;;
62457;SDS011;48509;52.122;5.250;2022-07-12T02:32:15;2.31;;;2.1;;
62457;SDS011;48509;52.122;5.250;2022-07-12T02:34:05;4.0;;;2.5;;
62457;SDS011;48509;52.122;5.250;2022-07-12T02:35:52;4.2;;;2.0;;
62457;SDS011;48509;52.122;5.250;2022-07-12T02:37:38;5.4;;;2.4;;
62457;SDS011;48509;52.122;5.250;2022-07-12T02:41:11;4.41;;;2.21;;
62457;SDS011;48509;52.122;5.250;2022-07-12T02:42:57;4.91;;;2.31;;
62457;SDS011;48509;52.122;5.250;2022-07-12T02:44:44;4.3;;;2.31;;
62457;SDS011;48509;52.122;5.250;2022-07-12T02:46:30;4.5;;;2.8;;
62457;SDS011;48509;52.122;5.250;2022-07-12T02:48:16;3.3;;;2.1;;
62457;SDS011;48509;52.122;5.250;2022-07-12T02:51:50;3.7;;;2.5;;
62457;SDS011;48509;52.122;5.250;2022-07-12T02:53:37;5.0;;;2.5;;
62457;SDS011;48509;52.122;5.250;2022-07-12T02:55:24;4.91;;;2.21;;
62457;SDS011;48509;52.122;5.250;2022-07-12T02:57:10;3.5;;;2.4;;
62457;SDS011;48509;52.122;5.250;2022-07-12T02:58:56;2.6;;;2.21;;
62457;SDS011;48509;52.122;5.250;2022-07-12T03:00:44;4.8;;;2.7;;
62457;SDS011;48509;52.122;5.250;2022-07-12T03:04:18;3.6;;;2.31;;
62457;SDS011;48509;52.122;5.250;2022-07-12T03:06:04;3.7;;;2.5;;
62457;SDS011;48509;52.122;5.250;2022-07-12T03:07:51;3.4;;;2.6;;
62457;SDS011;48509;52.122;5.250;2022-07-12T03:09:38;4.2;;;3.2;;
62457;SDS011;48509;52.122;5.250;2022-07-12T03:11:25;4.61;;;3.4;;
62457;SDS011;48509;52.122;5.250;2022-07-12T03:13:13;3.8;;;3.1;;
62457;SDS011;48509;52.122;5.250;2022-07-12T03:16:45;3.1;;;2.8;;
62457;SDS011;48509;52.122;5.250;2022-07-12T03:18:31;5.5;;;2.9;;
62457;SDS011;48509;52.122;5.250;2022-07-12T03:20:17;4.61;;;3.2;;
62457;SDS011;48509;52.122;5.250;2022-07-12T03:22:03;6.2;;;3.3;;
62457;SDS011;48509;52.122;5.250;2022-07-12T03:23:50;3.0;;;2.6;;
62457;SDS011;48509;52.122;5.250;2022-07-12T03:27:22;4.2;;;2.6;;
62457;SDS011;48509;52.122;5.250;2022-07-12T03:29:08;3.8;;;3.2;;
62457;SDS011;48509;52.122;5.250;2022-07-12T03:30:54;6.7;;;3.7;;
62457;SDS011;48509;52.122;5.250;2022-07-12T03:32:41;4.5;;;4.0;;
62457;SDS011;48509;52.122;5.250;2022-07-12T03:34:28;6.0;;;4.1;;
62457;SDS011;48509;52.122;5.250;2022-07-12T03:36:14;6.4;;;4.0;;
62457;SDS011;48509;52.122;5.250;2022-07-12T03:39:48;6.5;;;3.6;;
62457;SDS011;48509;52.122;5.250;2022-07-12T03:41:35;4.91;;;3.4;;
62457;SDS011;48509;52.122;5.250;2022-07-12T03:43:21;4.41;;;2.9;;
62457;SDS011;48509;52.122;5.250;2022-07-12T03:45:08;5.6;;;2.6;;
62457;SDS011;48509;52.122;5.250;2022-07-12T03:46:56;3.0;;;2.6;;
62457;SDS011;48509;52.122;5.250;2022-07-12T03:48:42;3.5;;;2.6;;
62457;SDS011;48509;52.122;5.250;2022-07-12T03:52:15;3.7;;;2.5;;
62457;SDS011;48509;52.122;5.250;2022-07-12T03:54:01;3.0;;;2.5;;
62457;SDS011;48509;52.122;5.250;2022-07-12T03:55:47;4.2;;;2.6;;
62457;SDS011;48509;52.122;5.250;2022-07-12T03:57:33;8.71;;;2.9;;
62457;SDS011;48509;52.122;5.250;2022-07-12T03:59:20;3.4;;;2.7;;
62457;SDS011;48509;52.122;5.250;2022-07-12T04:02:54;4.1;;;3.3;;
62457;SDS011;48509;52.122;5.250;2022-07-12T04:04:41;4.61;;;3.1;;
62457;SDS011;48509;52.122;5.250;2022-07-12T04:06:27;6.3;;;3.8;;
62457;SDS011;48509;52.122;5.250;2022-07-12T04:08:15;4.41;;;3.2;;
62457;SDS011;48509;52.122;5.250;2022-07-12T04:10:03;4.41;;;3.2;;
62457;SDS011;48509;52.122;5.250;2022-07-12T04:11:51;6.2;;;3.9;;
62457;SDS011;48509;52.122;5.250;2022-07-12T04:15:23;3.5;;;3.2;;
62457;SDS011;48509;52.122;5.250;2022-07-12T04:17:09;4.3;;;3.4;;
62457;SDS011;48509;52.122;5.250;2022-07-12T04:18:56;4.2;;;3.4;;
62457;SDS011;48509;52.122;5.250;2022-07-12T04:20:43;4.3;;;3.0;;
62457;SDS011;48509;52.122;5.250;2022-07-12T04:22:29;4.5;;;3.2;;
62457;SDS011;48509;52.122;5.250;2022-07-12T04:24:15;9.81;;;2.7;;
62457;SDS011;48509;52.122;5.250;2022-07-12T04:27:49;4.0;;;2.5;;
62457;SDS011;48509;52.122;5.250;2022-07-12T04:29:35;3.4;;;2.8;;
62457;SDS011;48509;52.122;5.250;2022-07-12T04:31:22;2.8;;;2.1;;
62457;SDS011;48509;52.122;5.250;2022-07-12T04:33:10;3.4;;;2.7;;
62457;SDS011;48509;52.122;5.250;2022-07-12T04:34:57;4.5;;;2.7;;
62457;SDS011;48509;52.122;5.250;2022-07-12T04:38:31;3.3;;;2.4;;
62457;SDS011;48509;52.122;5.250;2022-07-12T04:40:17;4.8;;;2.7;;
62457;SDS011;48509;52.122;5.250;2022-07-12T04:42:04;3.5;;;2.4;;
62457;SDS011;48509;52.122;5.250;2022-07-12T04:43:51;3.4;;;2.31;;
62457;SDS011;48509;52.122;5.250;2022-07-12T04:45:37;4.8;;;2.5;;
62457;SDS011;48509;52.122;5.250;2022-07-12T04:47:24;3.9;;;2.9;;
62457;SDS011;48509;52.122;5.250;2022-07-12T04:50:57;2.5;;;2.1;;
62457;SDS011;48509;52.122;5.250;2022-07-12T04:52:43;2.5;;;2.31;;
62457;SDS011;48509;52.122;5.250;2022-07-12T04:54:29;3.5;;;2.4;;
62457;SDS011;48509;52.122;5.250;2022-07-12T04:56:15;3.9;;;2.5;;
62457;SDS011;48509;52.122;5.250;2022-07-12T04:58:02;2.7;;;2.5;;
62457;SDS011;48509;52.122;5.250;2022-07-12T04:59:49;3.8;;;2.6;;
62457;SDS011;48509;52.122;5.250;2022-07-12T05:03:26;3.4;;;2.5;;
62457;SDS011;48509;52.122;5.250;2022-07-12T05:05:12;3.4;;;2.4;;
62457;SDS011;48509;52.122;5.250;2022-07-12T05:06:59;3.2;;;2.31;;
62457;SDS011;48509;52.122;5.250;2022-07-12T05:08:46;6.3;;;2.31;;
62457;SDS011;48509;52.122;5.250;2022-07-12T05:10:33;3.5;;;2.5;;
62457;SDS011;48509;52.122;5.250;2022-07-12T05:14:05;2.6;;;2.31;;
62457;SDS011;48509;52.122;5.250;2022-07-12T05:15:51;3.2;;;2.1;;
62457;SDS011;48509;52.122;5.250;2022-07-12T05:17:37;3.5;;;2.1;;
62457;SDS011;48509;52.122;5.250;2022-07-12T05:19:24;3.6;;;2.1;;
62457;SDS011;48509;52.122;5.250;2022-07-12T05:21:10;2.4;;;2.1;;
62457;SDS011;48509;52.122;5.250;2022-07-12T05:22:57;4.8;;;2.1;;
62457;SDS011;48509;52.122;5.250;2022-07-12T05:26:29;2.31;;;2.1;;
62457;SDS011;48509;52.122;5.250;2022-07-12T05:28:17;2.1;;;1.9;;
62457;SDS011;48509;52.122;5.250;2022-07-12T05:30:03;3.9;;;2.6;;
62457;SDS011;48509;52.122;5.250;2022-07-12T05:31:54;2.4;;;2.21;;
62457;SDS011;48509;52.122;5.250;2022-07-12T05:33:41;2.7;;;2.0;;
62457;SDS011;48509;52.122;5.250;2022-07-12T05:35:28;6.7;;;2.4;;
62457;SDS011;48509;52.122;5.250;2022-07-12T05:39:02;2.4;;;2.21;;
62457;SDS011;48509;52.122;5.250;2022-07-12T05:40:48;2.9;;;2.1;;
62457;SDS011;48509;52.122;5.250;2022-07-12T05:42:34;3.2;;;2.7;;
62457;SDS011;48509;52.122;5.250;2022-07-12T05:44:20;3.6;;;2.31;;
62457;SDS011;48509;52.122;5.250;2022-07-12T05:46:08;5.7;;;2.6;;
62457;SDS011;48509;52.122;5.250;2022-07-12T05:47:55;3.6;;;3.3;;
62457;SDS011;48509;52.122;5.250;2022-07-12T05:54:33;5.0;;;3.8;;
62457;SDS011;48509;52.122;5.250;2022-07-12T05:56:20;4.2;;;3.4;;
62457;SDS011;48509;52.122;5.250;2022-07-12T05:59:53;7.0;;;4.3;;
62457;SDS011;48509;52.122;5.250;2022-07-12T06:01:39;7.1;;;4.91;;
62457;SDS011;48509;52.122;5.250;2022-07-12T06:03:26;6.0;;;5.11;;
62457;SDS011;48509;52.122;5.250;2022-07-12T06:05:13;6.2;;;5.4;;
62457;SDS011;48509;52.122;5.250;2022-07-12T06:06:59;8.4;;;6.2;;
62457;SDS011;48509;52.122;5.250;2022-07-12T06:10:33;7.3;;;5.6;;
62457;SDS011;48509;52.122;5.250;2022-07-12T06:12:20;7.4;;;5.8;;
62457;SDS011;48509;52.122;5.250;2022-07-12T06:14:07;6.5;;;4.7;;
62457;SDS011;48509;52.122;5.250;2022-07-12T06:15:53;6.4;;;4.8;;
62457;SDS011;48509;52.122;5.250;2022-07-12T06:17:39;6.7;;;4.41;;
62457;SDS011;48509;52.122;5.250;2022-07-12T06:19:26;5.11;;;4.5;;
62457;SDS011;48509;52.122;5.250;2022-07-12T06:22:59;6.3;;;4.8;;
62457;SDS011;48509;52.122;5.250;2022-07-12T06:24:46;4.41;;;3.8;;
62457;SDS011;48509;52.122;5.250;2022-07-12T06:26:32;5.7;;;3.8;;
62457;SDS011;48509;52.122;5.250;2022-07-12T06:28:18;3.1;;;2.8;;
62457;SDS011;48509;52.122;5.250;2022-07-12T06:30:06;5.3;;;4.3;;
62457;SDS011;48509;52.122;5.250;2022-07-12T06:31:53;4.7;;;4.2;;
62457;SDS011;48509;52.122;5.250;2022-07-12T06:35:27;6.3;;;5.11;;
62457;SDS011;48509;52.122;5.250;2022-07-12T06:37:14;4.41;;;4.0;;
62457;SDS011;48509;52.122;5.250;2022-07-12T06:39:02;3.7;;;3.0;;
62457;SDS011;48509;52.122;5.250;2022-07-12T06:40:48;3.4;;;3.1;;
62457;SDS011;48509;52.122;5.250;2022-07-12T06:42:35;5.0;;;3.5;;
62457;SDS011;48509;52.122;5.250;2022-07-12T06:46:08;4.61;;;3.9;;
62457;SDS011;48509;52.122;5.250;2022-07-12T06:47:54;4.41;;;3.3;;
62457;SDS011;48509;52.122;5.250;2022-07-12T06:49:41;3.4;;;2.9;;
62457;SDS011;48509;52.122;5.250;2022-07-12T06:51:27;3.2;;;2.7;;
62457;SDS011;48509;52.122;5.250;2022-07-12T06:53:13;4.3;;;3.2;;
62457;SDS011;48509;52.122;5.250;2022-07-12T06:55:00;4.3;;;3.2;;
62457;SDS011;48509;52.122;5.250;2022-07-12T06:58:33;4.2;;;3.5;;
62457;SDS011;48509;52.122;5.250;2022-07-12T07:00:20;4.3;;;3.9;;
62457;SDS011;48509;52.122;5.250;2022-07-12T07:02:07;5.2;;;4.7;;
62457;SDS011;48509;52.122;5.250;2022-07-12T07:03:53;4.3;;;3.7;;
62457;SDS011;48509;52.122;5.250;2022-07-12T07:05:40;4.0;;;2.8;;
62457;SDS011;48509;52.122;5.250;2022-07-12T07:07:26;3.6;;;3.0;;
62457;SDS011;48509;52.122;5.250;2022-07-12T07:11:01;3.9;;;3.4;;
62457;SDS011;48509;52.122;5.250;2022-07-12T07:12:47;4.41;;;4.0;;
62457;SDS011;48509;52.122;5.250;2022-07-12T07:14:34;6.1;;;3.5;;
62457;SDS011;48509;52.122;5.250;2022-07-12T07:16:22;7.0;;;4.0;;
62457;SDS011;48509;52.122;5.250;2022-07-12T07:18:08;4.0;;;3.4;;
62457;SDS011;48509;52.122;5.250;2022-07-12T07:21:41;5.3;;;4.61;;
62457;SDS011;48509;52.122;5.250;2022-07-12T07:23:28;6.1;;;4.8;;
62457;SDS011;48509;52.122;5.250;2022-07-12T07:25:16;6.2;;;4.0;;
62457;SDS011;48509;52.122;5.250;2022-07-12T07:27:04;7.4;;;4.7;;
62457;SDS011;48509;52.122;5.250;2022-07-12T07:31:54;4.3;;;3.9;;
62457;SDS011;48509;52.122;5.250;2022-07-12T07:33:40;4.91;;;4.41;;
62457;SDS011;48509;52.122;5.250;2022-07-12T07:35:26;6.9;;;5.0;;
62457;SDS011;48509;52.122;5.250;2022-07-12T07:37:12;7.4;;;4.1;;
62457;SDS011;48509;52.122;5.250;2022-07-12T07:38:58;5.2;;;4.5;;
62457;SDS011;48509;52.122;5.250;2022-07-12T07:42:32;4.91;;;3.5;;
62457;SDS011;48509;52.122;5.250;2022-07-12T07:44:18;4.1;;;3.7;;
62457;SDS011;48509;52.122;5.250;2022-07-12T07:46:04;7.8;;;2.9;;
62457;SDS011;48509;52.122;5.250;2022-07-12T07:47:51;4.41;;;3.5;;
62457;SDS011;48509;52.122;5.250;2022-07-12T07:49:38;6.1;;;4.3;;
62457;SDS011;48509;52.122;5.250;2022-07-12T07:51:25;5.3;;;4.41;;
62457;SDS011;48509;52.122;5.250;2022-07-12T07:55:01;5.0;;;3.7;;
62457;SDS011;48509;52.122;5.250;2022-07-12T07:56:47;6.1;;;5.0;;
62457;SDS011;48509;52.122;5.250;2022-07-12T07:58:33;4.0;;;3.7;;
62457;SDS011;48509;52.122;5.250;2022-07-12T08:00:19;4.2;;;3.8;;
62457;SDS011;48509;52.122;5.250;2022-07-12T08:02:05;4.0;;;3.4;;
62457;SDS011;48509;52.122;5.250;2022-07-12T08:05:38;2.7;;;2.5;;
62457;SDS011;48509;52.122;5.250;2022-07-12T08:07:24;4.5;;;3.0;;
62457;SDS011;48509;52.122;5.250;2022-07-12T08:09:10;7.0;;;5.11;;
62457;SDS011;48509;52.122;5.250;2022-07-12T08:10:57;4.41;;;3.3;;
62457;SDS011;48509;52.122;5.250;2022-07-12T08:12:44;4.1;;;3.7;;
62457;SDS011;48509;52.122;5.250;2022-07-12T08:14:30;6.3;;;5.0;;
62457;SDS011;48509;52.122;5.250;2022-07-12T08:18:03;4.91;;;4.3;;
62457;SDS011;48509;52.122;5.250;2022-07-12T08:19:49;6.3;;;4.2;;
62457;SDS011;48509;52.122;5.250;2022-07-12T08:21:36;4.61;;;4.1;;
62457;SDS011;48509;52.122;5.250;2022-07-12T08:23:24;5.0;;;3.6;;
62457;SDS011;48509;52.122;5.250;2022-07-12T08:25:11;3.3;;;2.8;;
62457;SDS011;48509;52.122;5.250;2022-07-12T08:26:57;5.11;;;4.3;;
62457;SDS011;48509;52.122;5.250;2022-07-12T08:30:29;4.2;;;3.2;;
62457;SDS011;48509;52.122;5.250;2022-07-12T08:32:17;3.5;;;3.1;;
62457;SDS011;48509;52.122;5.250;2022-07-12T08:34:03;3.2;;;2.9;;
62457;SDS011;48509;52.122;5.250;2022-07-12T08:35:50;5.11;;;4.41;;
62457;SDS011;48509;52.122;5.250;2022-07-12T08:37:36;5.4;;;4.3;;
62457;SDS011;48509;52.122;5.250;2022-07-12T08:41:10;5.8;;;4.7;;
62457;SDS011;48509;52.122;5.250;2022-07-12T08:43:00;6.3;;;3.9;;
62457;SDS011;48509;52.122;5.250;2022-07-12T08:44:53;5.6;;;4.3;;
62457;SDS011;48509;52.122;5.250;2022-07-12T08:46:40;5.7;;;5.0;;
62457;SDS011;48509;52.122;5.250;2022-07-12T08:48:27;4.7;;;4.2;;
62457;SDS011;48509;52.122;5.250;2022-07-12T08:50:14;8.9;;;6.6;;
62457;SDS011;48509;52.122;5.250;2022-07-12T08:52:10;8.0;;;6.1;;
62457;SDS011;48509;52.122;5.250;2022-07-12T08:54:12;8.5;;;5.8;;
62457;SDS011;48509;52.122;5.250;2022-07-12T08:57:46;7.3;;;5.6;;
62457;SDS011;48509;52.122;5.250;2022-07-12T08:59:33;8.31;;;6.3;;
62457;SDS011;48509;52.122;5.250;2022-07-12T09:01:34;7.4;;;6.5;;
62457;SDS011;48509;52.122;5.250;2022-07-12T09:03:25;10.21;;;6.3;;
62457;SDS011;48509;52.122;5.250;2022-07-12T09:05:12;6.0;;;5.2;;
62457;SDS011;48509;52.122;5.250;2022-07-12T09:07:00;6.0;;;5.4;;
62457;SDS011;48509;52.122;5.250;2022-07-12T09:08:59;7.2;;;6.2;;
62457;SDS011;48509;52.122;5.250;2022-07-12T09:12:50;6.9;;;5.5;;
62457;SDS011;48509;52.122;5.250;2022-07-12T09:14:36;7.1;;;5.7;;
62457;SDS011;48509;52.122;5.250;2022-07-12T09:16:23;7.8;;;5.0;;
62457;SDS011;48509;52.122;5.250;2022-07-12T09:18:13;8.71;;;6.1;;
62457;SDS011;48509;52.122;5.250;2022-07-12T09:20:01;7.7;;;6.9;;
62457;SDS011;48509;52.122;5.250;2022-07-12T09:21:50;7.5;;;6.4;;
62457;SDS011;48509;52.122;5.250;2022-07-12T09:23:49;5.11;;;4.1;;
62457;SDS011;48509;52.122;5.250;2022-07-12T09:29:18;8.0;;;5.2;;
62457;SDS011;48509;52.122;5.250;2022-07-12T09:31:06;6.0;;;4.3;;
62457;SDS011;48509;52.122;5.250;2022-07-12T09:36:12;5.7;;;4.7;;
62457;SDS011;48509;52.122;5.250;2022-07-12T09:38:07;6.8;;;5.2;;
62457;SDS011;48509;52.122;5.250;2022-07-12T09:39:54;5.11;;;4.1;;
62457;SDS011;48509;52.122;5.250;2022-07-12T09:41:42;7.7;;;7.0;;
62457;SDS011;48509;52.122;5.250;2022-07-12T09:43:30;7.7;;;7.0;;
62457;SDS011;48509;52.122;5.250;2022-07-12T09:45:17;7.1;;;5.11;;
62457;SDS011;48509;52.122;5.250;2022-07-12T09:47:06;5.4;;;4.3;;
62457;SDS011;48509;52.122;5.250;2022-07-12T09:48:55;5.5;;;3.3;;
62457;SDS011;48509;52.122;5.250;2022-07-12T09:50:45;4.61;;;3.2;;
62457;SDS011;48509;52.122;5.250;2022-07-12T09:54:24;3.7;;;3.2;;
62457;SDS011;48509;52.122;5.250;2022-07-12T09:56:14;3.6;;;2.1;;
62457;SDS011;48509;52.122;5.250;2022-07-12T09:58:03;3.0;;;2.7;;
62457;SDS011;48509;52.122;5.250;2022-07-12T09:59:52;3.0;;;2.7;;
62457;SDS011;48509;52.122;5.250;2022-07-12T10:01:39;4.7;;;3.1;;
62457;SDS011;48509;52.122;5.250;2022-07-12T10:03:26;4.41;;;3.4;;
62457;SDS011;48509;52.122;5.250;2022-07-12T10:05:16;3.4;;;3.1;;
62457;SDS011;48509;52.122;5.250;2022-07-12T10:08:54;3.1;;;2.8;;
62457;SDS011;48509;52.122;5.250;2022-07-12T10:10:41;2.8;;;2.5;;
62457;SDS011;48509;52.122;5.250;2022-07-12T10:12:28;3.0;;;2.7;;
62457;SDS011;48509;52.122;5.250;2022-07-12T10:14:15;3.8;;;3.1;;
62457;SDS011;48509;52.122;5.250;2022-07-12T10:16:04;3.0;;;2.31;;
62457;SDS011;48509;52.122;5.250;2022-07-12T10:17:56;4.8;;;2.7;;
62457;SDS011;48509;52.122;5.250;2022-07-12T10:21:32;2.8;;;2.6;;
62457;SDS011;48509;52.122;5.250;2022-07-12T10:23:27;6.0;;;4.1;;
62457;SDS011;48509;52.122;5.250;2022-07-12T10:25:34;11.0;;;3.7;;
62457;SDS011;48509;52.122;5.250;2022-07-12T10:27:35;4.3;;;3.0;;
62457;SDS011;48509;52.122;5.250;2022-07-12T10:29:23;3.3;;;2.9;;
62457;SDS011;48509;52.122;5.250;2022-07-12T10:31:10;3.5;;;2.0;;
62457;SDS011;48509;52.122;5.250;2022-07-12T10:32:58;2.5;;;1.8;;
62457;SDS011;48509;52.122;5.250;2022-07-12T10:34:53;2.9;;;2.7;;
62457;SDS011;48509;52.122;5.250;2022-07-12T10:37:21;5.5;;;4.1;;
62457;SDS011;48509;52.122;5.250;2022-07-12T10:39:11;3.6;;;2.5;;
62457;SDS011;48509;52.122;5.250;2022-07-12T10:41:15;3.1;;;2.5;;
62457;SDS011;48509;52.122;5.250;2022-07-12T10:43:19;2.1;;;1.9;;
62457;SDS011;48509;52.122;5.250;2022-07-12T10:45:12;4.0;;;3.5;;
62457;SDS011;48509;52.122;5.250;2022-07-12T10:48:48;2.0;;;1.8;;
62457;SDS011;48509;52.122;5.250;2022-07-12T10:51:12;2.5;;;2.1;;
62457;SDS011;48509;52.122;5.250;2022-07-12T10:53:19;2.5;;;2.1;;
62457;SDS011;48509;52.122;5.250;2022-07-12T10:55:15;2.0;;;1.8;;
62457;SDS011;48509;52.122;5.250;2022-07-12T10:57:04;2.31;;;2.1;;
62457;SDS011;48509;52.122;5.250;2022-07-12T10:58:53;2.4;;;2.21;;
62457;SDS011;48509;52.122;5.250;2022-07-12T11:00:42;2.7;;;2.5;;
62457;SDS011;48509;52.122;5.250;2022-07-12T11:02:29;3.0;;;1.4;;
62457;SDS011;48509;52.122;5.250;2022-07-12T11:04:17;3.3;;;1.4;;
62457;SDS011;48509;52.122;5.250;2022-07-12T11:06:04;2.8;;;2.0;;
62457;SDS011;48509;52.122;5.250;2022-07-12T11:09:42;3.0;;;2.0;;
62457;SDS011;48509;52.122;5.250;2022-07-12T11:11:28;3.2;;;2.7;;
62457;SDS011;48509;52.122;5.250;2022-07-12T11:13:19;3.0;;;2.0;;
62457;SDS011;48509;52.122;5.250;2022-07-12T11:15:09;3.2;;;2.5;;
62457;SDS011;48509;52.122;5.250;2022-07-12T11:16:56;4.1;;;1.9;;
62457;SDS011;48509;52.122;5.250;2022-07-12T11:18:44;3.4;;;1.8;;
62457;SDS011;48509;52.122;5.250;2022-07-12T11:22:17;2.21;;;2.0;;
62457;SDS011;48509;52.122;5.250;2022-07-12T11:24:14;4.5;;;2.8;;
62457;SDS011;48509;52.122;5.250;2022-07-12T11:26:03;4.8;;;3.7;;
62457;SDS011;48509;52.122;5.250;2022-07-12T11:27:49;3.2;;;2.9;;
62457;SDS011;48509;52.122;5.250;2022-07-12T11:29:36;2.4;;;2.21;;
62457;SDS011;48509;52.122;5.250;2022-07-12T11:31:24;5.0;;;4.1;;
62457;SDS011;48509;52.122;5.250;2022-07-12T11:33:12;3.7;;;3.2;;
62457;SDS011;48509;52.122;5.250;2022-07-12T11:36:44;6.5;;;5.11;;
62457;SDS011;48509;52.122;5.250;2022-07-12T11:38:32;5.7;;;2.8;;
62457;SDS011;48509;52.122;5.250;2022-07-12T11:40:22;4.91;;;3.4;;
62457;SDS011;48509;52.122;5.250;2022-07-12T11:42:10;7.1;;;3.2;;
62457;SDS011;48509;52.122;5.250;2022-07-12T11:43:57;4.8;;;3.3;;
62457;SDS011;48509;52.122;5.250;2022-07-12T11:45:43;5.2;;;4.2;;
62457;SDS011;48509;52.122;5.250;2022-07-12T11:49:18;6.5;;;3.4;;
62457;SDS011;48509;52.122;5.250;2022-07-12T11:51:06;2.5;;;2.1;;
62457;SDS011;48509;52.122;5.250;2022-07-12T11:52:54;4.7;;;2.5;;
62457;SDS011;48509;52.122;5.250;2022-07-12T11:54:41;5.3;;;2.7;;
62457;SDS011;48509;52.122;5.250;2022-07-12T11:56:28;4.61;;;2.8;;
62457;SDS011;48509;52.122;5.250;2022-07-12T11:58:16;2.6;;;2.4;;
62457;SDS011;48509;52.122;5.250;2022-07-12T12:02:08;2.0;;;1.6;;
62457;SDS011;48509;52.122;5.250;2022-07-12T12:03:57;3.0;;;2.7;;
62457;SDS011;48509;52.122;5.250;2022-07-12T12:05:44;2.31;;;2.1;;
62457;SDS011;48509;52.122;5.250;2022-07-12T12:07:32;2.5;;;2.31;;
62457;SDS011;48509;52.122;5.250;2022-07-12T12:09:19;2.4;;;1.9;;
62457;SDS011;48509;52.122;5.250;2022-07-12T12:11:06;2.1;;;1.9;;
62457;SDS011;48509;52.122;5.250;2022-07-12T12:12:52;3.5;;;2.0;;
62457;SDS011;48509;52.122;5.250;2022-07-12T12:16:31;8.2;;;3.5;;
62457;SDS011;48509;52.122;5.250;2022-07-12T12:18:35;3.8;;;2.5;;
62457;SDS011;48509;52.122;5.250;2022-07-12T12:20:24;6.1;;;3.1;;
62457;SDS011;48509;52.122;5.250;2022-07-12T12:22:26;4.91;;;3.1;;
62457;SDS011;48509;52.122;5.250;2022-07-12T12:24:13;4.2;;;3.6;;
62457;SDS011;48509;52.122;5.250;2022-07-12T12:26:16;6.8;;;2.8;;
62457;SDS011;48509;52.122;5.250;2022-07-12T12:28:04;2.9;;;2.5;;
62457;SDS011;48509;52.122;5.250;2022-07-12T12:29:51;3.0;;;2.1;;
62457;SDS011;48509;52.122;5.250;2022-07-12T12:33:40;4.0;;;3.0;;
62457;SDS011;48509;52.122;5.250;2022-07-12T12:35:30;5.2;;;3.2;;
62457;SDS011;48509;52.122;5.250;2022-07-12T12:37:18;7.0;;;4.41;;
62457;SDS011;48509;52.122;5.250;2022-07-12T12:39:05;4.1;;;3.1;;
62457;SDS011;48509;52.122;5.250;2022-07-12T12:40:52;7.8;;;4.7;;
62457;SDS011;48509;52.122;5.250;2022-07-12T12:42:38;5.3;;;4.0;;
62457;SDS011;48509;52.122;5.250;2022-07-12T12:44:24;7.7;;;4.3;;
62457;SDS011;48509;52.122;5.250;2022-07-12T12:47:59;3.6;;;2.9;;
62457;SDS011;48509;52.122;5.250;2022-07-12T12:49:49;5.11;;;3.2;;
62457;SDS011;48509;52.122;5.250;2022-07-12T12:51:49;3.2;;;2.5;;
62457;SDS011;48509;52.122;5.250;2022-07-12T12:53:37;3.1;;;2.31;;
62457;SDS011;48509;52.122;5.250;2022-07-12T12:55:25;2.9;;;2.6;;
62457;SDS011;48509;52.122;5.250;2022-07-12T12:57:11;5.8;;;3.5;;
62457;SDS011;48509;52.122;5.250;2022-07-12T12:58:58;4.7;;;2.6;;
62457;SDS011;48509;52.122;5.250;2022-07-12T13:02:34;2.8;;;2.31;;
62457;SDS011;48509;52.122;5.250;2022-07-12T13:04:21;5.0;;;2.7;;
62457;SDS011;48509;52.122;5.250;2022-07-12T13:06:08;4.0;;;2.9;;
62457;SDS011;48509;52.122;5.250;2022-07-12T13:07:54;7.4;;;2.8;;
62457;SDS011;48509;52.122;5.250;2022-07-12T13:09:40;3.7;;;2.4;;